Time;durP1;ratioP1;P1;durP2;ratioP2;P2;SDS_P1;SDS_P2;PMS_P1;PMS_P2;Temp;Humidity;BMP_temperature;BMP_pressure;BME280_temperature;BME280_humidity;BME280_pressure;Samples;Min_cycle;Max_cycle;Signal;HPM_P1;HPM_P2
2021/03/09 00:02:19;;;;;;;19.57;8.53;;;;;;;-3.11;79.40;99297.63;6214005;23;20422;-81
2021/03/09 00:04:45;;;;;;;18.37;8.50;;;;;;;-2.93;79.38;99321.38;6213738;23;20019;-81
2021/03/09 00:07:11;;;;;;;14.43;8.23;;;;;;;-3.07;79.52;99333.72;6213858;23;20025;-81
2021/03/09 00:09:38;;;;;;;12.87;7.80;;;;;;;-3.15;79.25;99301.41;6215935;23;20031;-82
2021/03/09 00:12:05;;;;;;;20.63;8.77;;;;;;;-3.14;80.08;99310.28;6216159;23;20021;-81
2021/03/09 00:14:31;;;;;;;18.60;8.17;;;;;;;-3.09;79.84;99314.34;6215792;23;20469;-82
2021/03/09 00:16:58;;;;;;;16.33;7.63;;;;;;;-3.09;79.68;99313.50;6216437;23;20017;-81
2021/03/09 00:19:25;;;;;;;14.53;8.67;;;;;;;-3.06;79.44;99322.13;6215294;23;20022;-81
2021/03/09 00:21:51;;;;;;;16.43;8.17;;;;;;;-3.11;79.99;99316.25;6216312;23;20494;-81
2021/03/09 00:24:18;;;;;;;21.13;8.37;;;;;;;-3.12;80.62;99326.97;6215988;23;20013;-81
2021/03/09 00:26:44;;;;;;;13.67;7.23;;;;;;;-3.41;80.29;99298.56;6216036;23;20017;-81
2021/03/09 00:29:10;;;;;;;19.03;8.60;;;;;;;-3.44;80.45;99303.22;6216153;23;20047;-81
2021/03/09 00:31:37;;;;;;;14.23;7.30;;;;;;;-3.56;80.36;99295.00;6215842;23;20361;-81
2021/03/09 00:34:03;;;;;;;18.63;8.10;;;;;;;-3.59;80.20;99289.03;6216522;23;20020;-80
2021/03/09 00:36:31;;;;;;;15.90;7.87;;;;;;;-3.46;80.58;99297.13;6215442;23;20012;-83
2021/03/09 00:38:57;;;;;;;18.00;7.13;;;;;;;-3.41;80.54;99303.03;6215514;23;20016;-81
2021/03/09 00:41:24;;;;;;;15.97;7.90;;;;;;;-3.36;80.33;99306.25;6216341;23;20670;-80
2021/03/09 00:43:50;;;;;;;17.47;8.57;;;;;;;-3.52;82.10;99284.19;6215874;23;20016;-80
2021/03/09 00:46:17;;;;;;;20.80;8.60;;;;;;;-3.63;82.06;99263.59;6214887;23;20023;-80
2021/03/09 00:48:43;;;;;;;17.00;8.50;;;;;;;-3.47;82.13;99298.09;6215312;23;20047;-80
2021/03/09 00:51:10;;;;;;;17.20;7.63;;;;;;;-3.61;82.13;99288.28;6216108;23;20021;-80
2021/03/09 00:53:37;;;;;;;16.67;8.07;;;;;;;-3.68;81.95;99273.66;6215864;23;20070;-81
2021/03/09 00:56:04;;;;;;;17.63;8.87;;;;;;;-3.58;82.42;99294.25;6215791;23;20013;-81
2021/03/09 00:58:30;;;;;;;18.57;8.47;;;;;;;-3.52;81.67;99294.81;6215934;23;20021;-82
2021/03/09 01:00:57;;;;;;;16.00;8.47;;;;;;;-3.68;81.77;99286.94;6215447;23;20020;-81
2021/03/09 01:03:23;;;;;;;13.47;7.17;;;;;;;-3.70;81.71;99273.75;6215657;23;20013;-80
2021/03/09 01:05:50;;;;;;;19.87;7.97;;;;;;;-3.68;81.79;99284.28;6215198;23;20046;-81
2021/03/09 01:08:16;;;;;;;13.80;7.90;;;;;;;-3.71;82.19;99265.88;6215658;23;20503;-81
2021/03/09 01:10:45;;;;;;;19.30;8.23;;;;;;;-3.54;81.10;99286.09;6215777;23;20503;-81
2021/03/09 01:13:11;;;;;;;17.50;8.00;;;;;;;-3.72;81.49;99261.50;6189325;23;20326;-80
2021/03/09 01:15:37;;;;;;;15.77;8.53;;;;;;;-3.45;81.29;99302.34;6215417;23;20024;-81
2021/03/09 01:18:04;;;;;;;16.20;8.40;;;;;;;-3.60;80.58;99276.69;6215350;23;20017;-80
2021/03/09 01:20:31;;;;;;;16.47;7.53;;;;;;;-3.72;80.61;99285.41;6215237;23;20017;-81
2021/03/09 01:22:57;;;;;;;19.40;7.87;;;;;;;-3.76;80.68;99266.16;6215448;23;20044;-81
2021/03/09 01:25:24;;;;;;;16.17;7.90;;;;;;;-3.84;80.98;99271.91;6215540;23;20021;-81
2021/03/09 01:27:51;;;;;;;17.80;7.53;;;;;;;-3.86;81.65;99276.44;6215819;23;20028;-81
2021/03/09 01:30:19;;;;;;;17.83;7.97;;;;;;;-3.81;81.34;99282.38;6215318;23;20021;-81
2021/03/09 01:32:45;;;;;;;13.13;6.83;;;;;;;-4.07;81.20;99240.53;6214919;23;20043;-81
2021/03/09 01:35:13;;;;;;;19.80;7.43;;;;;;;-3.99;81.56;99257.75;6215515;23;20039;-80
2021/03/09 01:37:39;;;;;;;14.33;7.80;;;;;;;-3.91;81.06;99246.66;6215492;23;20019;-81
2021/03/09 01:40:07;;;;;;;15.77;7.93;;;;;;;-3.64;80.29;99291.13;6215259;23;20017;-81
2021/03/09 01:42:34;;;;;;;18.70;6.80;;;;;;;-3.77;80.66;99280.38;6215276;23;20457;-81
2021/03/09 01:45:02;;;;;;;12.90;6.87;;;;;;;-3.82;80.40;99267.34;6214017;23;20024;-80
2021/03/09 01:47:31;;;;;;;13.03;6.13;;;;;;;-3.80;80.47;99264.59;6215044;23;20021;-80
2021/03/09 01:49:58;;;;;;;18.80;7.47;;;;;;;-3.94;80.42;99236.22;6215008;23;20017;-81
2021/03/09 01:52:26;;;;;;;19.03;8.23;;;;;;;-3.85;80.86;99245.41;6214924;23;20021;-80
2021/03/09 01:54:53;;;;;;;14.80;7.33;;;;;;;-3.71;80.24;99253.44;6214878;23;20032;-80
2021/03/09 01:57:19;;;;;;;17.53;7.77;;;;;;;-3.93;80.91;99229.94;6215638;23;20021;-80
2021/03/09 01:59:47;;;;;;;13.10;6.57;;;;;;;-3.95;80.88;99223.88;6214767;23;20020;-80
2021/03/09 02:02:15;;;;;;;16.50;7.27;;;;;;;-3.86;80.47;99235.75;6215454;23;20020;-80
2021/03/09 02:04:41;;;;;;;17.57;7.70;;;;;;;-3.88;80.29;99235.84;6214435;23;20092;-80
2021/03/09 02:07:07;;;;;;;17.77;7.60;;;;;;;-4.13;80.11;99218.69;6215396;23;20017;-80
2021/03/09 02:09:35;;;;;;;15.53;7.53;;;;;;;-4.16;80.46;99216.22;6215274;23;20438;-81
2021/03/09 02:12:12;;;;;;;14.13;6.73;;;;;;;-3.86;80.32;99238.41;6214718;23;20206;-81
2021/03/09 02:14:49;;;;;;;15.53;7.73;;;;;;;-3.84;80.33;99241.81;6215309;23;20047;-81
2021/03/09 02:17:21;;;;;;;18.50;7.40;;;;;;;-3.81;80.35;99238.97;6215057;23;20017;-80
2021/03/09 02:20:26;;;;;;;16.77;7.60;;;;;;;-3.82;79.96;99240.78;6214674;23;20027;-80
2021/03/09 02:23:25;;;;;;;23.13;7.70;;;;;;;-3.91;80.15;99226.25;6213868;23;20028;-80
2021/03/09 02:26:16;;;;;;;16.77;7.68;;;;;;;-3.99;79.98;99231.19;6213437;23;20032;-80
2021/03/09 02:28:51;;;;;;;16.57;7.20;;;;;;;-4.19;80.57;99221.72;6213453;23;20021;-80
2021/03/09 02:31:19;;;;;;;14.90;7.07;;;;;;;-4.20;81.15;99221.81;6213652;23;20092;-80
2021/03/09 02:33:49;;;;;;;16.13;8.20;;;;;;;-4.16;80.50;99205.59;6212992;23;20341;-80
2021/03/09 02:36:20;;;;;;;18.50;7.40;;;;;;;-4.26;80.78;99188.50;6212475;23;20028;-79
2021/03/09 02:38:52;;;;;;;14.47;6.77;;;;;;;-4.35;80.53;99191.72;6214001;23;20077;-80
2021/03/09 02:41:21;;;;;;;18.40;7.87;;;;;;;-4.31;81.16;99190.59;6214422;23;20552;-80
2021/03/09 02:43:50;;;;;;;21.73;7.47;;;;;;;-4.35;80.52;99179.31;6212228;23;20039;-80
2021/03/09 02:46:19;;;;;;;16.00;7.53;;;;;;;-4.34;80.95;99191.63;6211627;23;20024;-80
2021/03/09 02:48:47;;;;;;;12.13;6.47;;;;;;;-4.41;80.99;99181.44;6212493;23;20023;-80
2021/03/09 02:51:13;;;;;;;16.67;7.27;;;;;;;-4.34;81.00;99202.22;6213989;23;20021;-79
2021/03/09 02:53:46;;;;;;;15.13;7.53;;;;;;;-4.41;81.14;99189.41;6215328;23;20349;-79
2021/03/09 02:56:15;;;;;;;16.70;7.40;;;;;;;-4.36;81.02;99190.03;6215209;23;20028;-80
2021/03/09 02:58:45;;;;;;;22.03;7.90;;;;;;;-4.33;80.66;99182.72;6216461;23;20369;-80
2021/03/09 03:01:13;;;;;;;15.00;7.03;;;;;;;-4.19;81.03;99211.09;6216382;23;20016;-80
2021/03/09 03:03:42;;;;;;;17.33;7.63;;;;;;;-4.19;80.83;99204.94;6216256;23;20348;-80
2021/03/09 03:06:11;;;;;;;18.60;7.88;;;;;;;-4.15;80.03;99196.72;6216512;23;20027;-80
2021/03/09 03:08:38;;;;;;;17.23;7.33;;;;;;;-4.38;80.61;99166.22;6216828;23;20021;-80
2021/03/09 03:11:05;;;;;;;20.97;7.33;;;;;;;-4.28;81.17;99191.25;6217224;23;20464;-80
2021/03/09 03:13:33;;;;;;;19.07;8.17;;;;;;;-4.35;81.36;99168.69;6216652;23;20028;-79
2021/03/09 03:16:01;;;;;;;19.90;8.20;;;;;;;-4.18;80.75;99204.00;6216318;23;20021;-80
2021/03/09 03:18:30;;;;;;;15.50;7.53;;;;;;;-4.43;81.09;99178.03;6215598;23;20377;-80
2021/03/09 03:20:57;;;;;;;15.90;7.63;;;;;;;-4.52;80.79;99176.78;6216547;23;20381;-79
2021/03/09 03:23:24;;;;;;;13.90;6.53;;;;;;;-4.46;80.84;99192.34;6215379;23;20252;-80
2021/03/09 03:25:53;;;;;;;15.00;7.97;;;;;;;-4.48;80.99;99188.94;6216397;23;20021;-80
2021/03/09 03:28:21;;;;;;;15.63;8.10;;;;;;;-4.48;80.93;99191.59;6217064;23;20027;-79
2021/03/09 03:30:48;;;;;;;17.43;7.80;;;;;;;-4.45;81.17;99186.09;6215769;23;20067;-79
2021/03/09 03:33:14;;;;;;;18.70;6.97;;;;;;;-4.40;80.92;99191.13;6215777;23;20485;-80
2021/03/09 03:35:41;;;;;;;13.73;7.57;;;;;;;-4.49;81.20;99166.81;6215411;23;20483;-79
2021/03/09 03:38:22;;;;;;;17.90;8.37;;;;;;;-4.37;81.17;99194.44;6215791;23;20016;-79
2021/03/09 03:40:49;;;;;;;19.90;8.63;;;;;;;-4.33;80.94;99197.81;6215979;23;20016;-79
2021/03/09 03:43:15;;;;;;;21.57;8.73;;;;;;;-4.48;81.41;99188.94;6215436;23;20353;-80
2021/03/09 03:45:41;;;;;;;18.37;8.43;;;;;;;-4.46;81.24;99179.06;6215038;23;20020;-79
2021/03/09 03:48:08;;;;;;;16.07;7.93;;;;;;;-4.47;81.82;99204.75;6215282;23;20021;-79
2021/03/09 03:50:35;;;;;;;14.73;7.57;;;;;;;-4.50;81.80;99204.06;6215741;23;20023;-80
2021/03/09 03:53:10;;;;;;;16.13;7.77;;;;;;;-4.70;82.18;99168.09;6189526;23;20025;-80
2021/03/09 03:55:53;;;;;;;21.27;8.00;;;;;;;-4.63;81.51;99169.44;6215356;23;20067;-79
2021/03/09 03:58:25;;;;;;;16.53;7.40;;;;;;;-4.46;81.26;99193.22;6215763;23;20021;-80
2021/03/09 04:00:53;;;;;;;19.37;8.90;;;;;;;-4.60;81.96;99179.03;6215675;23;20017;-79
2021/03/09 04:03:20;;;;;;;20.40;9.30;;;;;;;-4.65;81.43;99171.34;6215053;23;20017;-80
2021/03/09 04:05:50;;;;;;;17.73;7.97;;;;;;;-4.59;82.32;99181.59;6214934;23;20023;-79
2021/03/09 04:08:16;;;;;;;;;;;;;;;-4.47;82.41;99201.22;6216301;23;20025;-80
2021/03/09 04:10:48;;;;;;;18.63;8.03;;;;;;;-4.54;81.40;99182.19;6215664;23;19927;-79
2021/03/09 04:13:16;;;;;;;17.80;8.13;;;;;;;-4.51;81.38;99171.38;6215561;23;20024;-79
2021/03/09 04:15:43;;;;;;;17.00;7.50;;;;;;;-4.37;81.04;99189.16;6215055;23;20027;-79
2021/03/09 04:18:11;;;;;;;18.20;8.03;;;;;;;-4.56;80.74;99160.19;6214818;23;20016;-80
2021/03/09 04:20:41;;;;;;;20.57;8.13;;;;;;;-4.56;81.65;99178.78;6215616;23;20078;-79
2021/03/09 04:23:09;;;;;;;17.58;8.02;;;;;;;-4.63;81.77;99175.59;6216509;23;20264;-79
2021/03/09 04:25:36;;;;;;;16.23;8.40;;;;;;;-4.60;81.83;99171.91;6216160;23;20020;-79
2021/03/09 04:28:04;;;;;;;23.07;8.37;;;;;;;-4.47;81.78;99194.16;6216429;23;20025;-82
2021/03/09 04:30:32;;;;;;;20.93;9.00;;;;;;;-4.69;81.89;99175.09;6216110;23;20087;-79
2021/03/09 04:32:59;;;;;;;22.70;8.43;;;;;;;-4.83;82.34;99149.38;6215556;23;20349;-79
2021/03/09 04:35:26;;;;;;;17.83;7.33;;;;;;;-4.72;82.08;99152.25;6215446;23;20017;-80
2021/03/09 04:37:54;;;;;;;17.53;7.63;;;;;;;-4.88;81.70;99149.63;6215243;23;20087;-79
2021/03/09 04:40:22;;;;;;;14.60;7.67;;;;;;;-4.61;81.97;99180.81;6214423;23;20100;-82
2021/03/09 04:42:49;;;;;;;14.93;7.10;;;;;;;-4.48;81.78;99191.59;6215748;23;20059;-81
2021/03/09 04:45:16;;;;;;;20.90;8.70;;;;;;;-4.61;81.41;99175.50;6215874;23;20021;-82
2021/03/09 04:47:43;;;;;;;19.50;8.40;;;;;;;-4.68;81.84;99155.56;6215491;23;20021;-81
2021/03/09 04:50:14;;;;;;;16.43;8.07;;;;;;;-4.51;81.68;99189.97;6215944;23;20086;-82
2021/03/09 04:52:41;;;;;;;17.57;8.47;;;;;;;-4.70;81.48;99171.59;6216147;23;20039;-82
2021/03/09 04:55:09;;;;;;;20.37;8.87;;;;;;;-4.67;81.14;99166.09;6215394;23;20024;-82
2021/03/09 04:57:37;;;;;;;25.50;8.73;;;;;;;-4.52;80.95;99182.94;6215063;23;20028;-82
2021/03/09 05:00:06;;;;;;;17.83;7.97;;;;;;;-4.67;81.19;99168.75;6215261;23;20020;-81
2021/03/09 05:02:33;;;;;;;18.40;8.10;;;;;;;-4.60;81.68;99179.88;6215624;23;20028;-81
2021/03/09 05:05:00;;;;;;;16.70;7.67;;;;;;;-4.57;82.41;99194.78;6215032;23;20031;-82
2021/03/09 05:07:26;;;;;;;15.17;7.90;;;;;;;-4.90;82.45;99155.97;6215535;23;20082;-81
2021/03/09 05:09:52;;;;;;;22.73;9.80;;;;;;;-4.89;82.71;99169.16;6215197;23;20524;-81
2021/03/09 05:12:19;;;;;;;20.53;9.47;;;;;;;-4.86;82.66;99174.28;6214855;23;20020;-81
2021/03/09 05:14:45;;;;;;;19.13;8.70;;;;;;;-4.87;82.77;99163.75;6215026;23;20342;-82
2021/03/09 05:17:12;;;;;;;18.87;8.43;;;;;;;-4.68;82.41;99184.75;6215089;23;20021;-81
2021/03/09 05:19:48;;;;;;;20.93;8.20;;;;;;;-4.67;81.97;99167.91;6215576;23;20020;-88
2021/03/09 05:22:14;;;;;;;16.03;8.63;;;;;;;-4.55;82.68;99195.53;6215129;23;20048;-81
2021/03/09 05:24:40;;;;;;;23.60;8.83;;;;;;;-4.75;82.37;99173.66;6212133;23;20047;-81
2021/03/09 05:27:09;;;;;;;18.80;8.90;;;;;;;-4.55;83.02;99204.34;6214427;23;20025;-80
2021/03/09 05:29:35;;;;;;;18.70;9.17;;;;;;;-4.65;83.36;99185.44;6214150;23;20100;-81
2021/03/09 05:32:02;;;;;;;23.47;9.53;;;;;;;-4.82;83.20;99166.97;6214833;23;20024;-80
2021/03/09 05:34:28;;;;;;;17.57;8.53;;;;;;;-4.74;83.53;99187.75;6214912;23;20028;-80
2021/03/09 05:36:55;;;;;;;19.07;9.00;;;;;;;-4.56;83.04;99194.69;6214413;23;20062;-80
2021/03/09 05:39:22;;;;;;;19.50;8.97;;;;;;;-4.48;83.61;99207.50;6214350;23;20044;-81
2021/03/09 05:41:49;;;;;;;22.50;9.23;;;;;;;-4.55;83.73;99195.53;6214748;23;20060;-81
2021/03/09 05:44:16;;;;;;;22.27;9.43;;;;;;;-4.73;83.77;99162.97;6213478;23;20016;-81
2021/03/09 05:46:43;;;;;;;22.57;9.67;;;;;;;-4.64;83.96;99173.03;6214172;23;20039;-81
2021/03/09 05:49:10;;;;;;;17.30;7.73;;;;;;;-4.53;83.69;99175.06;6214763;23;20585;-81
2021/03/09 05:51:36;;;;;;;22.30;9.90;;;;;;;-4.64;83.93;99175.69;6214491;23;20021;-81
2021/03/09 05:54:03;;;;;;;22.97;10.33;;;;;;;-4.54;83.83;99192.78;6214296;23;20017;-81
2021/03/09 05:56:29;;;;;;;20.97;8.53;;;;;;;-4.39;84.06;99201.66;6213977;23;20017;-81
2021/03/09 05:58:56;;;;;;;17.40;9.50;;;;;;;-4.42;83.82;99201.00;6214208;23;20024;-81
2021/03/09 06:01:23;;;;;;;23.67;10.07;;;;;;;-4.45;83.13;99186.94;6213648;23;20827;-81
2021/03/09 06:03:49;;;;;;;23.27;9.10;;;;;;;-4.46;83.09;99195.88;6214492;23;20020;-81
2021/03/09 06:06:16;;;;;;;15.73;8.30;;;;;;;-4.42;82.85;99185.06;6213311;23;20021;-82
2021/03/09 06:08:42;;;;;;;25.33;10.90;;;;;;;-4.29;83.20;99199.31;6214126;23;20023;-81
2021/03/09 06:11:13;;;;;;;18.63;8.47;;;;;;;-4.50;83.35;99172.22;6214136;23;20023;-81
2021/03/09 06:13:40;;;;;;;23.40;10.47;;;;;;;-4.30;84.06;99202.94;6213740;23;20020;-81
2021/03/09 06:16:06;;;;;;;27.03;10.20;;;;;;;-4.27;84.18;99195.63;6213329;23;20021;-81
2021/03/09 06:18:33;;;;;;;18.80;9.40;;;;;;;-4.27;83.91;99186.81;6185695;23;20488;-80
2021/03/09 06:21:13;;;;;;;24.57;10.47;;;;;;;-4.23;83.98;99190.13;6214075;23;20020;-80
2021/03/09 06:23:40;;;;;;;20.23;9.10;;;;;;;-4.25;84.56;99173.47;6214253;23;20021;-81
2021/03/09 06:26:35;;;;;;;22.20;10.43;;;;;;;-3.87;84.06;99204.81;6214971;23;20028;-81
2021/03/09 06:29:09;;;;;;;22.83;10.53;;;;;;;-3.95;83.54;99190.19;6214885;23;20025;-81
2021/03/09 06:31:36;;;;;;;22.33;9.90;;;;;;;-3.78;83.71;99210.44;6217103;23;20021;-82
2021/03/09 06:34:26;;;;;;;20.10;9.90;;;;;;;-3.76;84.22;99207.69;6215708;23;20027;-81
2021/03/09 06:37:05;;;;;;;29.00;10.80;;;;;;;-4.01;84.40;99179.94;6190493;23;20082;-80
2021/03/09 06:39:54;;;;;;;26.77;10.33;;;;;;;-3.76;84.17;99213.00;6216750;23;20023;-81
2021/03/09 06:42:27;;;;;;;21.93;9.50;;;;;;;-3.94;84.19;99180.44;6216848;23;20016;-81
2021/03/09 06:44:56;;;;;;;22.73;10.30;;;;;;;-3.82;84.46;99192.97;6217110;23;20119;-81
2021/03/09 06:47:33;;;;;;;25.10;10.60;;;;;;;-3.66;83.85;99187.56;6216847;23;20032;-81
2021/03/09 06:50:00;;;;;;;23.33;10.10;;;;;;;-3.43;84.09;99207.41;6216898;23;20024;-81
2021/03/09 06:52:27;;;;;;;19.13;10.30;;;;;;;-3.35;84.21;99206.94;6216879;23;20016;-81
2021/03/09 06:54:55;;;;;;;18.87;9.87;;;;;;;-3.22;83.79;99204.38;6216708;23;20024;-82
2021/03/09 06:57:22;;;;;;;18.30;9.97;;;;;;;-3.03;84.06;99210.25;6217386;23;20016;-81
2021/03/09 06:59:51;;;;;;;23.73;10.40;;;;;;;-3.06;83.79;99199.78;6216746;23;20039;-81
2021/03/09 07:02:19;;;;;;;25.83;10.47;;;;;;;-3.08;83.73;99192.88;6216334;23;20052;-81
2021/03/09 07:04:47;;;;;;;24.67;11.00;;;;;;;-3.09;83.49;99173.38;6216360;23;20092;-81
2021/03/09 07:07:15;;;;;;;23.43;10.63;;;;;;;-2.98;83.06;99171.84;6217250;23;20021;-81
2021/03/09 07:09:55;;;;;;;26.40;11.43;;;;;;;-2.91;83.28;99184.63;6216797;23;20781;-84
2021/03/09 07:12:28;;;;;;;24.57;11.17;;;;;;;-2.82;82.82;99190.34;6216872;23;20040;-85
2021/03/09 07:14:55;;;;;;;22.90;11.07;;;;;;;-2.63;82.10;99212.13;6216184;23;20047;-86
2021/03/09 07:17:24;;;;;;;27.40;11.53;;;;;;;-2.48;82.24;99215.59;6217255;23;20013;-85
2021/03/09 07:19:51;;;;;;;31.90;12.20;;;;;;;-2.33;82.16;99232.38;6215833;23;20449;-82
2021/03/09 07:22:19;;;;;;;22.27;11.10;;;;;;;-2.35;82.46;99194.31;6216875;23;20446;-81
2021/03/09 07:25:00;;;;;;;26.70;10.70;;;;;;;-2.35;81.90;99192.53;6216442;23;20449;-82
2021/03/09 07:27:33;;;;;;;22.13;11.33;;;;;;;-2.13;81.57;99215.06;6216192;23;20020;-82
2021/03/09 07:30:01;;;;;;;21.13;9.70;;;;;;;-2.07;81.29;99217.31;6216620;23;20027;-82
2021/03/09 07:32:29;;;;;;;27.07;11.27;;;;;;;-2.20;81.56;99209.31;6189617;23;20017;-82
2021/03/09 07:34:57;;;;;;;26.00;12.27;;;;;;;-1.97;81.59;99220.22;6216475;23;20024;-82
2021/03/09 07:37:23;;;;;;;23.27;10.70;;;;;;;-1.94;81.23;99214.69;6189733;23;20024;-82
2021/03/09 07:39:50;;;;;;;22.93;10.87;;;;;;;-1.99;81.21;99212.34;6216217;23;20067;-82
2021/03/09 07:42:17;;;;;;;20.17;10.03;;;;;;;-1.79;80.92;99220.78;6216462;23;20021;-82
2021/03/09 07:44:46;;;;;;;25.90;11.53;;;;;;;-1.68;80.42;99228.88;6215917;23;20341;-82
2021/03/09 07:47:13;;;;;;;23.90;11.13;;;;;;;-1.67;80.53;99211.06;6216672;23;20024;-83
2021/03/09 07:49:41;;;;;;;24.70;11.57;;;;;;;-1.70;80.50;99203.28;6216392;23;20017;-83
2021/03/09 07:52:15;;;;;;;21.57;11.57;;;;;;;-1.49;80.55;99231.13;6216214;23;20021;-83
2021/03/09 07:55:21;;;;;;;27.50;12.47;;;;;;;-1.29;79.99;99204.88;6216468;23;20660;-83
2021/03/09 07:57:48;;;;;;;25.33;11.80;;;;;;;-1.34;80.20;99207.00;6216797;23;20028;-84
2021/03/09 08:00:17;;;;;;;25.60;10.73;;;;;;;-1.24;80.26;99224.06;6215932;23;20022;-83
2021/03/09 08:02:49;;;;;;;23.00;11.53;;;;;;;-1.22;80.23;99213.28;6216053;23;20031;-83
2021/03/09 08:05:19;;;;;;;21.10;11.70;;;;;;;-1.16;80.67;99188.84;6215948;23;20092;-85
2021/03/09 08:08:02;;;;;;;18.80;11.20;;;;;;;-1.16;79.70;99192.38;6216586;23;20039;-85
2021/03/09 08:10:45;;;;;;;27.67;11.10;;;;;;;-1.15;79.24;99191.38;6213853;23;20012;-84
2021/03/09 08:13:28;;;;;;;26.10;12.13;;;;;;;-1.00;80.05;99208.13;6215940;23;20120;-85
2021/03/09 08:16:31;;;;;;;23.07;11.53;;;;;;;-0.69;79.85;99223.72;6216293;23;20016;-85
2021/03/09 08:19:07;;;;;;;24.00;11.73;;;;;;;-0.65;79.35;99218.06;6216022;23;20055;-85
2021/03/09 08:22:04;;;;;;;25.13;11.70;;;;;;;-0.48;78.79;99219.50;6216797;23;20017;-85
2021/03/09 08:24:53;;;;;;;21.33;10.57;;;;;;;-0.38;78.58;99220.53;6066439;23;20411;-85
2021/03/09 08:27:40;;;;;;;25.23;12.33;;;;;;;-0.41;78.70;99206.53;6204287;23;20020;-86
2021/03/09 08:30:30;;;;;;;22.37;11.53;;;;;;;-0.16;78.56;99205.56;6207493;23;20016;-86
2021/03/09 08:33:32;;;;;;;24.73;11.60;;;;;;;-0.06;78.03;99208.38;6216939;23;20020;-86
2021/03/09 08:36:01;;;;;;;21.07;11.50;;;;;;;-0.12;77.71;99211.50;6209879;23;20066;-86
2021/03/09 08:38:27;;;;;;;23.83;13.27;;;;;;;0.03;77.66;99223.72;6216648;23;20047;-87
2021/03/09 08:41:18;;;;;;;28.77;12.23;;;;;;;0.01;77.14;99228.31;6216437;23;20040;-87
2021/03/09 08:44:25;;;;;;;25.13;12.23;;;;;;;0.11;77.18;99210.63;6216670;23;20020;-87
2021/03/09 08:46:59;;;;;;;23.63;11.80;;;;;;;0.42;76.84;99218.09;6209167;23;20020;-87
2021/03/09 08:49:45;;;;;;;21.77;11.87;;;;;;;0.53;76.91;99210.94;6216225;23;20043;-87
2021/03/09 08:52:43;;;;;;;29.33;12.00;;;;;;;0.72;75.93;99214.00;6216747;23;20028;-87
2021/03/09 08:55:10;;;;;;;23.77;12.77;;;;;;;0.75;75.55;99198.53;6214968;23;20469;-88
2021/03/09 08:57:36;;;;;;;26.83;13.30;;;;;;;0.98;75.30;99196.72;6214997;23;20052;-88
2021/03/09 09:00:10;;;;;;;19.67;11.10;;;;;;;0.99;74.62;99202.94;6217648;23;20247;-87
2021/03/09 09:02:49;;;;;;;21.07;12.60;;;;;;;1.04;74.69;99190.88;6218410;23;20368;-87
2021/03/09 09:05:22;;;;;;;27.37;13.03;;;;;;;1.24;75.43;99217.88;6216008;23;20017;-88
2021/03/09 09:07:51;;;;;;;22.47;12.63;;;;;;;1.17;74.85;99176.50;6216664;23;20449;-88
2021/03/09 09:10:32;;;;;;;;;;;;;;;;;;;;;
2021/03/09 09:13:07;;;;;;;27.17;13.33;;;;;;;1.55;73.67;99193.94;6216208;23;20115;-88
2021/03/09 09:15:35;;;;;;;31.37;12.53;;;;;;;1.55;72.91;99185.88;6215946;23;20024;-88
2021/03/09 09:18:06;;;;;;;31.27;12.82;;;;;;;1.63;72.89;99196.84;6215982;23;20095;-87
2021/03/09 09:20:37;;;;;;;27.80;11.52;;;;;;;1.73;73.22;99179.03;6216284;23;20070;-88
2021/03/09 09:23:10;;;;;;;21.80;11.37;;;;;;;1.69;72.87;99174.03;6216531;23;20021;-88
2021/03/09 09:25:38;;;;;;;27.08;13.00;;;;;;;1.86;73.02;99199.44;6216013;23;20020;-88
2021/03/09 09:28:09;;;;;;;20.20;11.70;;;;;;;2.04;72.50;99200.56;6215738;23;20020;-88
2021/03/09 09:30:46;;;;;;;23.60;10.95;;;;;;;1.99;71.28;99186.69;6215943;23;20027;-88
2021/03/09 09:33:24;;;;;;;22.80;11.38;;;;;;;1.98;71.30;99168.06;6215788;23;20020;-88
2021/03/09 09:35:52;;;;;;;19.40;10.88;;;;;;;2.28;71.24;99192.25;6216237;23;20044;-87
2021/03/09 09:38:20;;;;;;;29.27;12.73;;;;;;;2.01;71.30;99190.09;6216195;23;20067;-87
2021/03/09 09:40:48;;;;;;;19.67;10.98;;;;;;;2.16;71.08;99185.25;6216200;23;20012;-87
2021/03/09 09:43:25;;;;;;;21.02;10.95;;;;;;;2.31;69.87;99180.41;6215843;23;20028;-88
2021/03/09 09:45:55;;;;;;;23.73;11.02;;;;;;;2.28;70.44;99170.78;6213074;23;20021;-87
2021/03/09 09:48:23;;;;;;;;;;;;;;;2.70;70.60;99195.91;6216723;23;20021;-87
2021/03/09 09:50:54;;;;;;;29.38;12.05;;;;;;;2.59;69.52;99164.59;6216497;23;19915;-88
2021/03/09 09:53:33;;;;;;;22.35;12.48;;;;;;;2.85;69.86;99180.28;6216358;23;20016;-88
2021/03/09 09:56:01;;;;;;;21.88;12.05;;;;;;;2.99;67.76;99201.38;6215496;23;20066;-87
2021/03/09 09:58:43;;;;;;;22.65;11.32;;;;;;;2.97;67.61;99198.00;6215705;23;20013;-87
2021/03/09 10:01:12;;;;;;;27.75;11.60;;;;;;;2.98;68.47;99173.69;6215760;23;20013;-88
2021/03/09 10:04:03;;;;;;;22.75;12.00;;;;;;;3.12;67.54;99164.38;6215552;23;20017;-87
2021/03/09 10:06:30;;;;;;;22.92;11.32;;;;;;;3.27;67.55;99172.91;6208993;23;20043;-87
2021/03/09 10:09:09;;;;;;;24.95;11.70;;;;;;;3.38;66.80;99193.44;6215950;23;20096;-87
2021/03/09 10:11:49;;;;;;;29.80;12.45;;;;;;;3.19;67.02;99165.53;6215371;23;20012;-88
2021/03/09 10:14:21;;;;;;;21.17;11.52;;;;;;;3.28;65.87;99155.81;6215356;23;20017;-87
2021/03/09 10:16:50;;;;;;;24.02;12.10;;;;;;;3.56;66.11;99168.56;6216443;23;20017;-88
2021/03/09 10:19:24;;;;;;;30.85;12.25;;;;;;;3.75;65.27;99187.41;6215921;23;20095;-88
2021/03/09 10:21:54;;;;;;;22.45;11.35;;;;;;;3.84;65.47;99178.50;6217121;23;20013;-88
2021/03/09 10:24:22;;;;;;;22.08;11.55;;;;;;;3.98;65.11;99163.75;6216097;23;20039;-88
2021/03/09 10:26:56;;;;;;;29.33;11.70;;;;;;;4.06;64.32;99188.13;6216282;23;20017;-88
2021/03/09 10:29:34;;;;;;;24.92;12.82;;;;;;;4.07;63.66;99176.34;6213509;23;20048;-88
2021/03/09 10:32:13;;;;;;;25.08;12.38;;;;;;;3.97;64.99;99197.03;6216207;23;20035;-88
2021/03/09 10:34:44;;;;;;;22.48;12.60;;;;;;;3.81;64.72;99170.72;6214934;23;20021;-88
2021/03/09 10:37:15;;;;;;;19.40;10.52;;;;;;;3.84;64.57;99170.44;6215309;23;20016;-88
2021/03/09 10:39:55;;;;;;;24.75;11.25;;;;;;;3.81;64.04;99146.50;6215548;23;20021;-88
2021/03/09 10:42:37;;;;;;;25.25;12.57;;;;;;;4.04;63.61;99162.34;6215669;23;20021;-88
2021/03/09 10:45:26;;;;;;;22.52;11.73;;;;;;;4.36;62.64;99156.59;6215625;23;20031;-88
2021/03/09 10:48:06;;;;;;;15.45;9.82;;;;;;;3.97;63.20;99161.22;6214985;23;20048;-88
2021/03/09 10:50:40;;;;;;;21.20;11.15;;;;;;;4.29;61.85;99149.25;6215158;23;20021;-88
2021/03/09 10:53:24;;;;;;;22.25;12.50;;;;;;;4.37;62.23;99179.84;6215073;23;20050;-88
2021/03/09 10:55:59;;;;;;;20.30;9.77;;;;;;;4.43;61.77;99155.03;6216861;23;20365;-88
2021/03/09 10:58:28;;;;;;;22.00;11.35;;;;;;;4.61;60.70;99184.75;6214911;23;20021;-88
2021/03/09 11:00:55;;;;;;;18.98;10.82;;;;;;;4.53;61.30;99159.53;6216030;23;20043;-88
2021/03/09 11:03:22;;;;;;;21.73;10.32;;;;;;;4.42;61.56;99155.19;6213468;23;20058;-89
2021/03/09 11:05:48;;;;;;;19.75;10.23;;;;;;;4.57;62.00;99147.50;6213012;23;20476;-89
2021/03/09 11:08:15;;;;;;;21.90;11.80;;;;;;;4.88;60.91;99158.84;6213861;23;20016;-89
2021/03/09 11:10:41;;;;;;;22.23;10.88;;;;;;;5.24;61.43;99155.41;6212939;23;20012;-89
2021/03/09 11:13:14;;;;;;;22.52;11.00;;;;;;;4.97;61.08;99154.44;6215455;23;20032;-89
2021/03/09 11:15:41;;;;;;;21.63;12.68;;;;;;;5.06;59.90;99142.75;6216494;23;20091;-89
2021/03/09 11:18:07;;;;;;;21.25;10.55;;;;;;;4.96;60.19;99142.78;6218969;23;20095;-89
2021/03/09 11:21:06;;;;;;;20.05;11.40;;;;;;;5.14;59.85;99166.25;6219342;23;20021;-89
2021/03/09 11:23:35;;;;;;;26.15;10.65;;;;;;;5.18;59.01;99156.88;6217023;23;20012;-89
2021/03/09 11:26:11;;;;;;;17.92;10.13;;;;;;;5.10;59.04;99167.53;6225268;23;20527;-89
2021/03/09 11:28:43;;;;;;;20.33;10.10;;;;;;;5.11;58.78;99139.59;6218189;23;20025;-90
2021/03/09 11:31:15;;;;;;;18.00;9.90;;;;;;;5.22;58.69;99133.16;6217132;23;20032;-89
2021/03/09 11:34:01;;;;;;;;;;;;;;;;;;;;;
2021/03/09 11:36:30;;;;;;;21.33;10.35;;;;;;;5.53;56.85;99139.03;6218312;23;20013;-91
2021/03/09 11:38:57;;;;;;;20.37;11.07;;;;;;;5.46;57.41;99135.25;6217500;23;20022;-90
2021/03/09 11:41:26;;;;;;;17.38;9.93;;;;;;;5.89;56.61;99160.63;6218176;23;20464;-91
2021/03/09 11:44:06;;;;;;;;;;;;;;;;;;;;;
2021/03/09 11:46:42;;;;;;;20.48;9.40;;;;;;;6.03;55.28;99146.59;6217912;23;20123;-91
2021/03/09 11:49:11;;;;;;;18.30;8.50;;;;;;;6.15;52.96;99157.16;6218376;23;20021;-92